sensor_id;sensor_type;location;lat;lon;timestamp;pressure;altitude;pressure_sealevel;temperature;humidity
46756;BME280;32506;52.826;-1.192;2023-11-19T00:01:07;99719.19;;;10.75;68.36
46756;BME280;32506;52.826;-1.192;2023-11-19T00:03:33;99728.25;;;10.74;68.26
46756;BME280;32506;52.826;-1.192;2023-11-19T00:05:59;99720.47;;;10.72;68.06
46756;BME280;32506;52.826;-1.192;2023-11-19T00:08:24;99718.84;;;10.71;68.38
46756;BME280;32506;52.826;-1.192;2023-11-19T00:10:50;99713.72;;;10.70;68.43
46756;BME280;32506;52.826;-1.192;2023-11-19T00:13:16;99716.63;;;10.68;68.11
46756;BME280;32506;52.826;-1.192;2023-11-19T00:15:41;99715.84;;;10.68;68.38
46756;BME280;32506;52.826;-1.192;2023-11-19T00:18:07;99707.22;;;10.66;68.13
46756;BME280;32506;52.826;-1.192;2023-11-19T00:20:33;99708.28;;;10.65;68.34
46756;BME280;32506;52.826;-1.192;2023-11-19T00:22:58;99702.91;;;10.65;68.34
46756;BME280;32506;52.826;-1.192;2023-11-19T00:25:24;99705.03;;;10.63;68.23
46756;BME280;32506;52.826;-1.192;2023-11-19T00:27:51;99722.09;;;10.62;68.37
46756;BME280;32506;52.826;-1.192;2023-11-19T00:30:18;99715.13;;;10.61;68.38
46756;BME280;32506;52.826;-1.192;2023-11-19T00:32:44;99711.91;;;10.58;68.16
46756;BME280;32506;52.826;-1.192;2023-11-19T00:35:10;99724.41;;;10.58;68.11
46756;BME280;32506;52.826;-1.192;2023-11-19T00:37:36;99706.78;;;10.57;68.21
46756;BME280;32506;52.826;-1.192;2023-11-19T00:40:02;99707.03;;;10.55;68.33
46756;BME280;32506;52.826;-1.192;2023-11-19T00:42:30;99698.41;;;10.53;68.15
46756;BME280;32506;52.826;-1.192;2023-11-19T00:44:56;99704.81;;;10.52;68.33
46756;BME280;32506;52.826;-1.192;2023-11-19T00:47:21;99702.13;;;10.52;68.35
46756;BME280;32506;52.826;-1.192;2023-11-19T00:49:47;99689.81;;;10.51;68.17
46756;BME280;32506;52.826;-1.192;2023-11-19T00:52:16;99685.78;;;10.49;68.24
46756;BME280;32506;52.826;-1.192;2023-11-19T00:54:42;99697.25;;;10.49;68.29
46756;BME280;32506;52.826;-1.192;2023-11-19T00:57:08;99692.16;;;10.48;68.56
46756;BME280;32506;52.826;-1.192;2023-11-19T00:59:33;99692.16;;;10.48;68.44
46756;BME280;32506;52.826;-1.192;2023-11-19T01:01:59;99679.03;;;10.46;68.40
46756;BME280;32506;52.826;-1.192;2023-11-19T01:04:29;99685.19;;;10.47;68.62
46756;BME280;32506;52.826;-1.192;2023-11-19T01:06:54;99677.66;;;10.44;68.58
46756;BME280;32506;52.826;-1.192;2023-11-19T01:09:20;99677.66;;;10.44;68.61
46756;BME280;32506;52.826;-1.192;2023-11-19T01:11:45;99684.03;;;10.43;68.62
46756;BME280;32506;52.826;-1.192;2023-11-19T01:14:10;99680.56;;;10.42;68.44
46756;BME280;32506;52.826;-1.192;2023-11-19T01:16:36;99683.22;;;10.42;68.68
46756;BME280;32506;52.826;-1.192;2023-11-19T01:19:01;99689.59;;;10.41;68.58
46756;BME280;32506;52.826;-1.192;2023-11-19T01:21:30;99690.66;;;10.40;68.75
46756;BME280;32506;52.826;-1.192;2023-11-19T01:23:57;99681.84;;;10.39;68.40
46756;BME280;32506;52.826;-1.192;2023-11-19T01:26:23;99682.03;;;10.38;68.50
46756;BME280;32506;52.826;-1.192;2023-11-19T01:28:49;99687.38;;;10.38;68.55
46756;BME280;32506;52.826;-1.192;2023-11-19T01:31:17;99670.56;;;10.37;68.59
46756;BME280;32506;52.826;-1.192;2023-11-19T01:33:43;99671.59;;;10.36;68.79
46756;BME280;32506;52.826;-1.192;2023-11-19T01:36:09;99665.44;;;10.36;68.58
46756;BME280;32506;52.826;-1.192;2023-11-19T01:38:36;99664.66;;;10.35;68.60
46756;BME280;32506;52.826;-1.192;2023-11-19T01:41:01;99667.31;;;10.35;68.79
46756;BME280;32506;52.826;-1.192;2023-11-19T01:43:32;99663.00;;;10.34;68.81
46756;BME280;32506;52.826;-1.192;2023-11-19T01:45:58;99662.16;;;10.34;68.73
46756;BME280;32506;52.826;-1.192;2023-11-19T01:48:24;99655.22;;;10.33;68.80
46756;BME280;32506;52.826;-1.192;2023-11-19T01:50:50;99664.81;;;10.34;68.47
46756;BME280;32506;52.826;-1.192;2023-11-19T01:53:17;99668.78;;;10.31;68.60
46756;BME280;32506;52.826;-1.192;2023-11-19T01:55:43;99665.31;;;10.31;68.78
46756;BME280;32506;52.826;-1.192;2023-11-19T01:58:09;99667.97;;;10.31;68.75
46756;BME280;32506;52.826;-1.192;2023-11-19T02:00:34;99672.50;;;10.30;68.61
46756;BME280;32506;52.826;-1.192;2023-11-19T02:03:00;99662.06;;;10.29;68.83
46756;BME280;32506;52.826;-1.192;2023-11-19T02:05:26;99669.00;;;10.30;68.92
46756;BME280;32506;52.826;-1.192;2023-11-19T02:07:51;99669.84;;;10.30;69.00
46756;BME280;32506;52.826;-1.192;2023-11-19T02:10:17;99665.53;;;10.29;69.01
46756;BME280;32506;52.826;-1.192;2023-11-19T02:12:44;99664.75;;;10.29;68.97
46756;BME280;32506;52.826;-1.192;2023-11-19T02:15:11;99658.56;;;10.28;68.58
46756;BME280;32506;52.826;-1.192;2023-11-19T02:17:37;99655.09;;;10.28;69.03
46756;BME280;32506;52.826;-1.192;2023-11-19T02:20:04;99664.94;;;10.27;68.88
46756;BME280;32506;52.826;-1.192;2023-11-19T02:22:38;99668.69;;;10.26;68.92
46756;BME280;32506;52.826;-1.192;2023-11-19T02:25:07;99675.88;;;10.25;68.76
46756;BME280;32506;52.826;-1.192;2023-11-19T02:27:56;99680.41;;;10.25;68.69
46756;BME280;32506;52.826;-1.192;2023-11-19T02:30:22;99664.63;;;10.23;69.17
46756;BME280;32506;52.826;-1.192;2023-11-19T02:32:58;99663.78;;;10.23;68.85
46756;BME280;32506;52.826;-1.192;2023-11-19T02:35:26;99666.69;;;10.21;68.98
46756;BME280;32506;52.826;-1.192;2023-11-19T02:37:51;99664.03;;;10.21;68.75
46756;BME280;32506;52.826;-1.192;2023-11-19T02:40:17;99657.06;;;10.20;68.79
46756;BME280;32506;52.826;-1.192;2023-11-19T02:42:42;99652.78;;;10.19;68.85
46756;BME280;32506;52.826;-1.192;2023-11-19T02:45:08;99658.13;;;10.19;68.91
46756;BME280;32506;52.826;-1.192;2023-11-19T02:47:40;99657.28;;;10.19;69.02
46756;BME280;32506;52.826;-1.192;2023-11-19T02:50:06;99654.63;;;10.19;68.97
46756;BME280;32506;52.826;-1.192;2023-11-19T02:52:38;99654.63;;;10.19;69.14
46756;BME280;32506;52.826;-1.192;2023-11-19T02:55:05;99656.50;;;10.18;69.06
46756;BME280;32506;52.826;-1.192;2023-11-19T02:57:34;99641.28;;;10.19;68.97
46756;BME280;32506;52.826;-1.192;2023-11-19T03:00:00;99634.09;;;10.19;69.07
46756;BME280;32506;52.826;-1.192;2023-11-19T03:02:25;99638.34;;;10.20;69.14
46756;BME280;32506;52.826;-1.192;2023-11-19T03:04:59;99631.41;;;10.19;69.08
46756;BME280;32506;52.826;-1.192;2023-11-19T03:07:24;99633.03;;;10.20;69.06
46756;BME280;32506;52.826;-1.192;2023-11-19T03:09:49;99627.69;;;10.20;68.97
46756;BME280;32506;52.826;-1.192;2023-11-19T03:12:15;99621.53;;;10.20;68.91
46756;BME280;32506;52.826;-1.192;2023-11-19T03:14:40;99622.34;;;10.20;69.01
46756;BME280;32506;52.826;-1.192;2023-11-19T03:17:06;99625.84;;;10.21;68.97
46756;BME280;32506;52.826;-1.192;2023-11-19T03:19:31;99621.53;;;10.20;69.08
46756;BME280;32506;52.826;-1.192;2023-11-19T03:21:57;99629.56;;;10.20;68.99
46756;BME280;32506;52.826;-1.192;2023-11-19T03:24:22;99632.22;;;10.20;68.98
46756;BME280;32506;52.826;-1.192;2023-11-19T03:26:50;99640.22;;;10.20;68.84
46756;BME280;32506;52.826;-1.192;2023-11-19T03:29:16;99633.03;;;10.20;69.08
46756;BME280;32506;52.826;-1.192;2023-11-19T03:31:42;99649.88;;;10.21;68.97
46756;BME280;32506;52.826;-1.192;2023-11-19T03:34:08;99625.84;;;10.21;68.76
46756;BME280;32506;52.826;-1.192;2023-11-19T03:36:33;99622.34;;;10.20;69.00
46756;BME280;32506;52.826;-1.192;2023-11-19T03:38:59;99633.84;;;10.21;68.88
46756;BME280;32506;52.826;-1.192;2023-11-19T03:41:24;99617.00;;;10.20;69.08
46756;BME280;32506;52.826;-1.192;2023-11-19T03:43:50;99621.31;;;10.21;69.12
46756;BME280;32506;52.826;-1.192;2023-11-19T03:46:19;99625.84;;;10.21;68.82
46756;BME280;32506;52.826;-1.192;2023-11-19T03:48:46;99628.50;;;10.21;69.08
46756;BME280;32506;52.826;-1.192;2023-11-19T03:51:11;99625.84;;;10.21;68.77
46756;BME280;32506;52.826;-1.192;2023-11-19T03:53:43;99637.31;;;10.21;69.06
46756;BME280;32506;52.826;-1.192;2023-11-19T03:56:10;99639.19;;;10.21;69.05
46756;BME280;32506;52.826;-1.192;2023-11-19T03:58:35;99632.81;;;10.22;69.06
46756;BME280;32506;52.826;-1.192;2023-11-19T04:01:01;99640.00;;;10.21;68.95
46756;BME280;32506;52.826;-1.192;2023-11-19T04:03:27;99637.31;;;10.21;69.12
46756;BME280;32506;52.826;-1.192;2023-11-19T04:05:53;99630.16;;;10.22;69.13
46756;BME280;32506;52.826;-1.192;2023-11-19T04:08:18;99629.31;;;10.21;68.98
46756;BME280;32506;52.826;-1.192;2023-11-19T04:10:44;99634.66;;;10.21;69.01
46756;BME280;32506;52.826;-1.192;2023-11-19T04:13:10;99644.06;;;10.24;69.22
46756;BME280;32506;52.826;-1.192;2023-11-19T04:15:36;99645.69;;;10.25;69.42
46756;BME280;32506;52.826;-1.192;2023-11-19T04:18:01;99640.91;;;10.27;69.22
46756;BME280;32506;52.826;-1.192;2023-11-19T04:20:26;99636.41;;;10.28;69.49
46756;BME280;32506;52.826;-1.192;2023-11-19T04:22:52;99634.53;;;10.28;69.08
46756;BME280;32506;52.826;-1.192;2023-11-19T04:25:19;99641.50;;;10.29;69.17
46756;BME280;32506;52.826;-1.192;2023-11-19T04:27:44;99642.31;;;10.30;69.14
46756;BME280;32506;52.826;-1.192;2023-11-19T04:30:10;99642.31;;;10.30;68.97
46756;BME280;32506;52.826;-1.192;2023-11-19T04:32:36;99639.63;;;10.30;68.98
46756;BME280;32506;52.826;-1.192;2023-11-19T04:35:02;99637.56;;;10.32;69.05
46756;BME280;32506;52.826;-1.192;2023-11-19T04:37:28;99641.25;;;10.31;68.89
46756;BME280;32506;52.826;-1.192;2023-11-19T04:39:54;99642.91;;;10.32;68.98
46756;BME280;32506;52.826;-1.192;2023-11-19T04:42:22;99639.41;;;10.31;68.92
46756;BME280;32506;52.826;-1.192;2023-11-19T04:44:47;99643.94;;;10.31;69.07
46756;BME280;32506;52.826;-1.192;2023-11-19T04:47:12;99648.25;;;10.32;69.16
46756;BME280;32506;52.826;-1.192;2023-11-19T04:49:42;99647.19;;;10.33;69.19
46756;BME280;32506;52.826;-1.192;2023-11-19T04:52:10;99654.16;;;10.34;69.07
46756;BME280;32506;52.826;-1.192;2023-11-19T04:54:43;99657.06;;;10.32;69.15
46756;BME280;32506;52.826;-1.192;2023-11-19T04:57:09;99653.59;;;10.32;69.08
46756;BME280;32506;52.826;-1.192;2023-11-19T04:59:36;99655.41;;;10.31;69.06
46756;BME280;32506;52.826;-1.192;2023-11-19T05:02:02;99657.28;;;10.31;68.98
46756;BME280;32506;52.826;-1.192;2023-11-19T05:04:29;99653.81;;;10.30;68.91
46756;BME280;32506;52.826;-1.192;2023-11-19T05:06:54;99652.75;;;10.31;69.16
46756;BME280;32506;52.826;-1.192;2023-11-19T05:09:20;99645.56;;;10.32;69.27
46756;BME280;32506;52.826;-1.192;2023-11-19T05:11:45;99634.88;;;10.32;68.91
46756;BME280;32506;52.826;-1.192;2023-11-19T05:14:11;99624.19;;;10.32;68.98
46756;BME280;32506;52.826;-1.192;2023-11-19T05:16:39;99637.31;;;10.33;69.20
46756;BME280;32506;52.826;-1.192;2023-11-19T05:19:05;99630.09;;;10.34;69.02
46756;BME280;32506;52.826;-1.192;2023-11-19T05:21:30;99631.19;;;10.33;69.11
46756;BME280;32506;52.826;-1.192;2023-11-19T05:23:56;99640.00;;;10.33;68.86
46756;BME280;32506;52.826;-1.192;2023-11-19T05:26:23;99639.19;;;10.33;69.25
46756;BME280;32506;52.826;-1.192;2023-11-19T05:28:48;99637.31;;;10.33;69.20
46756;BME280;32506;52.826;-1.192;2023-11-19T05:31:16;99640.00;;;10.33;69.21
46756;BME280;32506;52.826;-1.192;2023-11-19T05:33:42;99647.19;;;10.33;69.00
46756;BME280;32506;52.826;-1.192;2023-11-19T05:36:07;99632.22;;;10.32;69.18
46756;BME280;32506;52.826;-1.192;2023-11-19T05:38:36;99634.06;;;10.31;69.06
46756;BME280;32506;52.826;-1.192;2023-11-19T05:41:02;99633.25;;;10.31;69.20
46756;BME280;32506;52.826;-1.192;2023-11-19T05:43:28;99624.44;;;10.30;69.00
46756;BME280;32506;52.826;-1.192;2023-11-19T05:45:53;99625.25;;;10.31;69.25
46756;BME280;32506;52.826;-1.192;2023-11-19T05:48:18;99630.59;;;10.31;69.11
46756;BME280;32506;52.826;-1.192;2023-11-19T05:50:44;99618.84;;;10.32;69.07
46756;BME280;32506;52.826;-1.192;2023-11-19T05:53:10;99622.34;;;10.32;69.10
46756;BME280;32506;52.826;-1.192;2023-11-19T05:55:38;99617.81;;;10.33;69.13
46756;BME280;32506;52.826;-1.192;2023-11-19T05:58:11;99623.16;;;10.33;69.48
46756;BME280;32506;52.826;-1.192;2023-11-19T06:00:40;99623.75;;;10.35;69.39
46756;BME280;32506;52.826;-1.192;2023-11-19T06:03:07;99621.09;;;10.35;69.24
46756;BME280;32506;52.826;-1.192;2023-11-19T06:05:32;99606.69;;;10.36;69.44
46756;BME280;32506;52.826;-1.192;2023-11-19T06:07:58;99608.56;;;10.35;69.24
46756;BME280;32506;52.826;-1.192;2023-11-19T06:10:23;99620.03;;;10.36;69.42
46756;BME280;32506;52.826;-1.192;2023-11-19T06:12:59;99623.50;;;10.36;69.32
46756;BME280;32506;52.826;-1.192;2023-11-19T06:15:26;99627.81;;;10.37;69.55
46756;BME280;32506;52.826;-1.192;2023-11-19T06:17:52;99619.81;;;10.37;69.28
46756;BME280;32506;52.826;-1.192;2023-11-19T06:20:18;99631.09;;;10.39;69.72
46756;BME280;32506;52.826;-1.192;2023-11-19T06:22:45;99630.25;;;10.39;69.31
46756;BME280;32506;52.826;-1.192;2023-11-19T06:25:11;99648.94;;;10.39;69.54
46756;BME280;32506;52.826;-1.192;2023-11-19T06:27:36;99651.63;;;10.39;69.42
46756;BME280;32506;52.826;-1.192;2023-11-19T06:30:02;99646.28;;;10.39;69.25
46756;BME280;32506;52.826;-1.192;2023-11-19T06:32:28;99644.44;;;10.39;69.34
46756;BME280;32506;52.826;-1.192;2023-11-19T06:34:54;99643.59;;;10.39;69.31
46756;BME280;32506;52.826;-1.192;2023-11-19T06:37:19;99639.31;;;10.38;69.50
46756;BME280;32506;52.826;-1.192;2023-11-19T06:39:45;99641.75;;;10.39;69.63
46756;BME280;32506;52.826;-1.192;2023-11-19T06:42:10;99641.97;;;10.38;69.71
46756;BME280;32506;52.826;-1.192;2023-11-19T06:44:36;99638.25;;;10.39;69.78
46756;BME280;32506;52.826;-1.192;2023-11-19T06:47:01;99623.28;;;10.38;69.54
46756;BME280;32506;52.826;-1.192;2023-11-19T06:49:27;99632.91;;;10.39;69.74
46756;BME280;32506;52.826;-1.192;2023-11-19T06:51:52;99630.25;;;10.39;69.62
46756;BME280;32506;52.826;-1.192;2023-11-19T06:54:18;99624.09;;;10.38;69.50
46756;BME280;32506;52.826;-1.192;2023-11-19T06:56:43;99618.75;;;10.38;69.68
46756;BME280;32506;52.826;-1.192;2023-11-19T06:59:09;99626.19;;;10.36;69.38
46756;BME280;32506;52.826;-1.192;2023-11-19T07:01:38;99630.72;;;10.36;69.46
46756;BME280;32506;52.826;-1.192;2023-11-19T07:04:04;99629.09;;;10.35;69.13
46756;BME280;32506;52.826;-1.192;2023-11-19T07:06:35;99632.78;;;10.34;69.27
46756;BME280;32506;52.826;-1.192;2023-11-19T07:09:01;99641.84;;;10.33;69.46
46756;BME280;32506;52.826;-1.192;2023-11-19T07:11:35;99646.59;;;10.31;69.37
46756;BME280;32506;52.826;-1.192;2023-11-19T07:14:01;99647.41;;;10.31;69.38
46756;BME280;32506;52.826;-1.192;2023-11-19T07:16:27;99646.59;;;10.31;69.14
46756;BME280;32506;52.826;-1.192;2023-11-19T07:18:52;99644.75;;;10.31;69.23
46756;BME280;32506;52.826;-1.192;2023-11-19T07:21:18;99650.91;;;10.32;69.18
46756;BME280;32506;52.826;-1.192;2023-11-19T07:23:45;99647.66;;;10.30;69.54
46756;BME280;32506;52.826;-1.192;2023-11-19T07:26:10;99651.94;;;10.31;69.24
46756;BME280;32506;52.826;-1.192;2023-11-19T07:28:36;99658.31;;;10.30;69.39
46756;BME280;32506;52.826;-1.192;2023-11-19T07:31:01;99653.81;;;10.30;69.25
46756;BME280;32506;52.826;-1.192;2023-11-19T07:33:27;99664.50;;;10.30;69.72
46756;BME280;32506;52.826;-1.192;2023-11-19T07:35:53;99661.00;;;10.30;69.50
46756;BME280;32506;52.826;-1.192;2023-11-19T07:38:18;99651.16;;;10.30;69.04
46756;BME280;32506;52.826;-1.192;2023-11-19T07:40:44;99653.81;;;10.30;69.53
46756;BME280;32506;52.826;-1.192;2023-11-19T07:43:09;99649.50;;;10.29;69.40
46756;BME280;32506;52.826;-1.192;2023-11-19T07:45:34;99643.94;;;10.31;69.41
46756;BME280;32506;52.826;-1.192;2023-11-19T07:48:00;99649.03;;;10.32;69.53
46756;BME280;32506;52.826;-1.192;2023-11-19T07:50:26;99655.22;;;10.33;69.53
46756;BME280;32506;52.826;-1.192;2023-11-19T07:52:53;99657.88;;;10.33;69.48
46756;BME280;32506;52.826;-1.192;2023-11-19T07:55:18;99664.81;;;10.34;69.57
46756;BME280;32506;52.826;-1.192;2023-11-19T07:57:44;99661.97;;;10.35;69.64
46756;BME280;32506;52.826;-1.192;2023-11-19T08:00:10;99660.09;;;10.36;69.77
46756;BME280;32506;52.826;-1.192;2023-11-19T08:02:37;99668.69;;;10.38;69.83
46756;BME280;32506;52.826;-1.192;2023-11-19T08:05:04;99677.28;;;10.40;69.61
46756;BME280;32506;52.826;-1.192;2023-11-19T08:07:29;99665.31;;;10.43;69.80
46756;BME280;32506;52.826;-1.192;2023-11-19T08:09:54;99671.22;;;10.45;69.66
46756;BME280;32506;52.826;-1.192;2023-11-19T08:12:20;99676.13;;;10.48;69.47
46756;BME280;32506;52.826;-1.192;2023-11-19T08:14:45;99671.34;;;10.50;69.49
46756;BME280;32506;52.826;-1.192;2023-11-19T08:17:11;99669.03;;;10.53;69.73
46756;BME280;32506;52.826;-1.192;2023-11-19T08:19:36;99664.28;;;10.55;69.81
46756;BME280;32506;52.826;-1.192;2023-11-19T08:22:02;99664.84;;;10.57;69.48
46756;BME280;32506;52.826;-1.192;2023-11-19T08:24:27;99663.56;;;10.60;69.63
46756;BME280;32506;52.826;-1.192;2023-11-19T08:26:53;99655.06;;;10.63;69.39
46756;BME280;32506;52.826;-1.192;2023-11-19T08:29:19;99661.00;;;10.65;69.55
46756;BME280;32506;52.826;-1.192;2023-11-19T08:31:44;99657.03;;;10.68;69.83
46756;BME280;32506;52.826;-1.192;2023-11-19T08:34:11;99653.91;;;10.71;69.99
46756;BME280;32506;52.826;-1.192;2023-11-19T08:36:37;99653.66;;;10.72;69.99
46756;BME280;32506;52.826;-1.192;2023-11-19T08:39:02;99648.91;;;10.74;69.91
46756;BME280;32506;52.826;-1.192;2023-11-19T08:41:28;99653.75;;;10.78;69.75
46756;BME280;32506;52.826;-1.192;2023-11-19T08:43:53;99648.16;;;10.79;69.73
46756;BME280;32506;52.826;-1.192;2023-11-19T08:46:19;99656.53;;;10.83;69.99
46756;BME280;32506;52.826;-1.192;2023-11-19T08:48:45;99668.63;;;10.85;69.61
46756;BME280;32506;52.826;-1.192;2023-11-19T08:51:11;99662.78;;;10.88;69.88
46756;BME280;32506;52.826;-1.192;2023-11-19T08:53:37;99665.81;;;10.92;70.09
46756;BME280;32506;52.826;-1.192;2023-11-19T08:56:02;99661.84;;;10.95;69.99
46756;BME280;32506;52.826;-1.192;2023-11-19T08:58:28;99657.91;;;10.97;69.88
46756;BME280;32506;52.826;-1.192;2023-11-19T09:00:54;99658.22;;;11.01;70.13
46756;BME280;32506;52.826;-1.192;2023-11-19T09:03:19;99661.00;;;11.06;70.27
46756;BME280;32506;52.826;-1.192;2023-11-19T09:05:45;99662.13;;;11.10;70.51
46756;BME280;32506;52.826;-1.192;2023-11-19T09:08:11;99660.59;;;11.14;70.25
46756;BME280;32506;52.826;-1.192;2023-11-19T09:10:37;99660.69;;;11.19;70.14
46756;BME280;32506;52.826;-1.192;2023-11-19T09:13:02;99656.50;;;11.23;70.22
46756;BME280;32506;52.826;-1.192;2023-11-19T09:15:29;99647.19;;;11.26;70.15
46756;BME280;32506;52.826;-1.192;2023-11-19T09:17:54;99653.91;;;11.29;70.51
46756;BME280;32506;52.826;-1.192;2023-11-19T09:20:20;99650.75;;;11.32;70.22
46756;BME280;32506;52.826;-1.192;2023-11-19T09:22:45;99664.72;;;11.34;70.33
46756;BME280;32506;52.826;-1.192;2023-11-19T09:25:11;99657.25;;;11.36;70.20
46756;BME280;32506;52.826;-1.192;2023-11-19T09:27:37;99650.59;;;11.38;70.25
46756;BME280;32506;52.826;-1.192;2023-11-19T09:30:03;99663.75;;;11.40;70.26
46756;BME280;32506;52.826;-1.192;2023-11-19T09:32:29;99646.41;;;11.42;70.05
46756;BME280;32506;52.826;-1.192;2023-11-19T09:34:54;99646.72;;;11.46;70.41
46756;BME280;32506;52.826;-1.192;2023-11-19T09:37:20;99640.09;;;11.49;70.33
46756;BME280;32506;52.826;-1.192;2023-11-19T09:39:45;99642.03;;;11.53;70.32
46756;BME280;32506;52.826;-1.192;2023-11-19T09:42:12;99634.34;;;11.57;70.27
46756;BME280;32506;52.826;-1.192;2023-11-19T09:44:38;99631.75;;;11.62;70.25
46756;BME280;32506;52.826;-1.192;2023-11-19T09:47:05;99632.31;;;11.64;70.15
46756;BME280;32506;52.826;-1.192;2023-11-19T09:49:31;99639.63;;;11.69;70.10
46756;BME280;32506;52.826;-1.192;2023-11-19T09:51:56;99632.97;;;11.71;70.15
46756;BME280;32506;52.826;-1.192;2023-11-19T09:54:22;99636.78;;;11.75;70.36
46756;BME280;32506;52.826;-1.192;2023-11-19T09:56:48;99639.53;;;11.81;70.23
46756;BME280;32506;52.826;-1.192;2023-11-19T09:59:14;99639.84;;;11.84;70.43
46756;BME280;32506;52.826;-1.192;2023-11-19T10:01:39;99642.84;;;11.88;70.26
46756;BME280;32506;52.826;-1.192;2023-11-19T10:04:06;99638.63;;;11.92;70.31
46756;BME280;32506;52.826;-1.192;2023-11-19T10:06:32;99635.28;;;11.97;70.23
46756;BME280;32506;52.826;-1.192;2023-11-19T10:08:57;99633.13;;;11.99;69.78
46756;BME280;32506;52.826;-1.192;2023-11-19T10:11:24;99627.06;;;12.03;69.67
46756;BME280;32506;52.826;-1.192;2023-11-19T10:13:52;99622.00;;;12.07;70.03
46756;BME280;32506;52.826;-1.192;2023-11-19T10:16:18;99625.00;;;12.11;70.21
46756;BME280;32506;52.826;-1.192;2023-11-19T10:18:48;99626.13;;;12.15;69.94
46756;BME280;32506;52.826;-1.192;2023-11-19T10:21:17;99634.50;;;12.18;69.97
46756;BME280;32506;52.826;-1.192;2023-11-19T10:23:53;99635.38;;;12.24;69.94
46756;BME280;32506;52.826;-1.192;2023-11-19T10:26:21;99622.31;;;12.28;69.92
46756;BME280;32506;52.826;-1.192;2023-11-19T10:28:48;99612.72;;;12.32;70.03
46756;BME280;32506;52.826;-1.192;2023-11-19T10:31:14;99618.38;;;12.35;70.03
46756;BME280;32506;52.826;-1.192;2023-11-19T10:33:39;99613.09;;;12.40;69.48
46756;BME280;32506;52.826;-1.192;2023-11-19T10:36:06;99602.69;;;12.44;69.64
46756;BME280;32506;52.826;-1.192;2023-11-19T10:38:32;99601.13;;;12.48;69.45
46756;BME280;32506;52.826;-1.192;2023-11-19T10:40:57;99598.50;;;12.53;69.56
46756;BME280;32506;52.826;-1.192;2023-11-19T10:43:24;99584.59;;;12.56;69.41
46756;BME280;32506;52.826;-1.192;2023-11-19T10:45:50;99601.34;;;12.64;69.54
46756;BME280;32506;52.826;-1.192;2023-11-19T10:48:16;99599.50;;;12.69;69.28
46756;BME280;32506;52.826;-1.192;2023-11-19T10:50:43;99616.47;;;12.75;69.53
46756;BME280;32506;52.826;-1.192;2023-11-19T10:53:11;99609.28;;;12.81;69.27
46756;BME280;32506;52.826;-1.192;2023-11-19T10:55:41;99600.75;;;12.84;69.37
46756;BME280;32506;52.826;-1.192;2023-11-19T10:58:07;99602.09;;;12.86;69.39
46756;BME280;32506;52.826;-1.192;2023-11-19T11:00:51;99603.78;;;12.92;69.20
46756;BME280;32506;52.826;-1.192;2023-11-19T11:03:19;99605.94;;;12.96;69.52
46756;BME280;32506;52.826;-1.192;2023-11-19T11:05:49;99588.06;;;13.01;69.13
46756;BME280;32506;52.826;-1.192;2023-11-19T11:08:16;99599.63;;;13.07;69.23
46756;BME280;32506;52.826;-1.192;2023-11-19T11:10:48;99582.50;;;13.13;68.81
46756;BME280;32506;52.826;-1.192;2023-11-19T11:13:17;99588.75;;;13.19;68.95
46756;BME280;32506;52.826;-1.192;2023-11-19T11:15:44;99589.03;;;13.22;68.78
46756;BME280;32506;52.826;-1.192;2023-11-19T11:18:12;99583.19;;;13.25;68.80
46756;BME280;32506;52.826;-1.192;2023-11-19T11:20:39;99587.22;;;13.28;68.73
46756;BME280;32506;52.826;-1.192;2023-11-19T11:23:22;99578.94;;;13.30;68.83
46756;BME280;32506;52.826;-1.192;2023-11-19T11:39:49;99569.38;;;13.39;69.13
46756;BME280;32506;52.826;-1.192;2023-11-19T11:50:22;99563.19;;;14.24;67.81
46756;BME280;32506;52.826;-1.192;2023-11-19T11:55:34;99534.75;;;14.43;67.17
46756;BME280;32506;52.826;-1.192;2023-11-19T11:58:07;99533.19;;;14.48;67.13
46756;BME280;32506;52.826;-1.192;2023-11-19T12:00:38;99535.34;;;14.56;67.49
46756;BME280;32506;52.826;-1.192;2023-11-19T12:03:05;99534.91;;;14.85;67.98
46756;BME280;32506;52.826;-1.192;2023-11-19T12:05:31;99529.56;;;15.26;66.83
46756;BME280;32506;52.826;-1.192;2023-11-19T12:08:06;99523.06;;;15.58;65.58
46756;BME280;32506;52.826;-1.192;2023-11-19T12:10:53;99528.97;;;15.70;64.93
46756;BME280;32506;52.826;-1.192;2023-11-19T12:13:20;99523.59;;;15.65;64.95
46756;BME280;32506;52.826;-1.192;2023-11-19T12:20:50;99519.88;;;15.40;65.39
46756;BME280;32506;52.826;-1.192;2023-11-19T12:23:15;99519.03;;;15.35;66.03
46756;BME280;32506;52.826;-1.192;2023-11-19T12:25:41;99534.13;;;15.31;65.64
46756;BME280;32506;52.826;-1.192;2023-11-19T12:28:12;99520.69;;;15.25;65.31
46756;BME280;32506;52.826;-1.192;2023-11-19T12:30:38;99536.00;;;15.20;65.68
46756;BME280;32506;52.826;-1.192;2023-11-19T12:33:08;99525.22;;;15.15;65.59
46756;BME280;32506;52.826;-1.192;2023-11-19T12:35:45;99525.25;;;15.09;65.75
46756;BME280;32506;52.826;-1.192;2023-11-19T12:38:23;99526.88;;;15.05;66.14
46756;BME280;32506;52.826;-1.192;2023-11-19T12:41:07;99523.91;;;15.02;66.07
46756;BME280;32506;52.826;-1.192;2023-11-19T12:43:33;99526.59;;;14.97;65.96
46756;BME280;32506;52.826;-1.192;2023-11-19T12:46:21;99530.34;;;14.96;66.20
46756;BME280;32506;52.826;-1.192;2023-11-19T12:48:48;99520.13;;;14.92;66.56
46756;BME280;32506;52.826;-1.192;2023-11-19T12:51:14;99511.50;;;14.96;66.26
46756;BME280;32506;52.826;-1.192;2023-11-19T12:56:14;99501.28;;;15.08;66.41
46756;BME280;32506;52.826;-1.192;2023-11-19T12:58:41;99513.66;;;15.09;66.37
46756;BME280;32506;52.826;-1.192;2023-11-19T13:01:08;99496.72;;;15.08;66.63
46756;BME280;32506;52.826;-1.192;2023-11-19T13:03:37;99519.06;;;15.09;66.73
46756;BME280;32506;52.826;-1.192;2023-11-19T13:06:10;99509.91;;;15.10;66.70
46756;BME280;32506;52.826;-1.192;2023-11-19T13:08:46;99511.53;;;15.11;66.78
46756;BME280;32506;52.826;-1.192;2023-11-19T13:11:13;99513.16;;;15.12;66.35
46756;BME280;32506;52.826;-1.192;2023-11-19T13:14:04;99501.28;;;15.18;66.40
46756;BME280;32506;52.826;-1.192;2023-11-19T13:16:31;99506.94;;;15.22;66.63
46756;BME280;32506;52.826;-1.192;2023-11-19T13:18:57;99513.13;;;15.27;66.34
46756;BME280;32506;52.826;-1.192;2023-11-19T13:21:23;99513.41;;;15.31;66.84